Eggersdorf Airport


Codes: EDCE/
Name: Eggersdorf Airport
City: Eggersdorf
Country: Germany
Elevation: 223 ft.

Photos at Eggersdorf Airport


   Photos courtesy of SpottingLog. You can add your own sightings and photos by signing up for a free trial today.



No photos found.

Weather at Eggersdorf Airport


Time (UTC)DescriptionTempratureWindCloud coverageVisibilityPressureHumidity
26-Jun-2024 00:00Clear Sky18°C7 mph, E0%10000m1017hPa78%
26-Jun-2024 03:00Clear Sky17°C7 mph, E0%10000m1016hPa84%
26-Jun-2024 06:00Clear Sky20°C11 mph, E1%10000m1015hPa69%
26-Jun-2024 09:00Clear Sky26°C11 mph, E0%10000m1014hPa49%
26-Jun-2024 12:00Clear Sky30°C9 mph, E0%10000m1012hPa41%
26-Jun-2024 15:00Scattered Clouds31°C9 mph, E34%10000m1011hPa38%
26-Jun-2024 18:00Scattered Clouds27°C9 mph, E40%10000m1010hPa58%
26-Jun-2024 21:00Broken Clouds22°C7 mph, E80%10000m1011hPa71%
27-Jun-2024 00:00Broken Clouds20°C7 mph, E71%10000m1010hPa74%
27-Jun-2024 03:00Overcast Clouds19°C4 mph, E89%10000m1010hPa79%
27-Jun-2024 06:00Overcast Clouds23°C7 mph, SE95%10000m1010hPa67%
27-Jun-2024 09:00Broken Clouds29°C7 mph, SE58%10000m1009hPa50%
27-Jun-2024 12:00Broken Clouds32°C9 mph, SE72%10000m1008hPa39%
27-Jun-2024 15:00Broken Clouds32°C9 mph, S56%10000m1007hPa35%
27-Jun-2024 18:00Light Rain24°C13 mph, SE58%10000m1007hPa66%
27-Jun-2024 21:00Moderate Rain20°C9 mph, S71%10000m1008hPa89%
28-Jun-2024 00:00Light Rain20°C7 mph, S65%10000m1009hPa93%
28-Jun-2024 03:00Broken Clouds20°C7 mph, W54%10000m1009hPa96%
28-Jun-2024 06:00Scattered Clouds23°C9 mph, SW49%10000m1011hPa80%
28-Jun-2024 09:00Light Rain27°C11 mph, W65%10000m1012hPa59%
28-Jun-2024 12:00Light Rain27°C13 mph, W59%10000m1013hPa55%
28-Jun-2024 15:00Overcast Clouds25°C11 mph, W95%10000m1015hPa44%
28-Jun-2024 18:00Broken Clouds22°C9 mph, NW64%10000m1017hPa50%
28-Jun-2024 21:00Scattered Clouds17°C7 mph, NW31%10000m1019hPa65%
29-Jun-2024 00:00Few Clouds15°C4 mph, NE18%10000m1020hPa78%
29-Jun-2024 03:00Clear Sky14°C2 mph, NE5%10000m1020hPa83%
29-Jun-2024 06:00Few Clouds19°C4 mph, E11%10000m1020hPa66%
29-Jun-2024 09:00Broken Clouds23°C7 mph, E64%10000m1018hPa49%
29-Jun-2024 12:00Scattered Clouds28°C7 mph, SE37%10000m1016hPa35%
29-Jun-2024 15:00Clear Sky30°C7 mph, SE7%10000m1013hPa31%
29-Jun-2024 18:00Clear Sky27°C7 mph, E8%10000m1010hPa49%
29-Jun-2024 21:00Light Rain22°C9 mph, SE1%10000m1009hPa65%
30-Jun-2024 00:00Light Rain21°C9 mph, SE52%10000m1006hPa86%
30-Jun-2024 03:00Light Rain20°C7 mph, SE100%10000m1004hPa90%
30-Jun-2024 06:00Light Rain23°C9 mph, W91%10000m1004hPa84%
30-Jun-2024 09:00Broken Clouds26°C11 mph, SW69%10000m1004hPa63%
30-Jun-2024 12:00Scattered Clouds31°C18 mph, SW39%10000m1003hPa43%
30-Jun-2024 15:00Scattered Clouds28°C18 mph, SW27%10000m1004hPa50%
30-Jun-2024 18:00Scattered Clouds20°C16 mph, W41%10000m1006hPa71%
30-Jun-2024 21:00Broken Clouds17°C11 mph, W79%10000m1008hPa72%